CheckWX is a tool to help pilots better visualize weather data.  It is not intended as a substitute for an official pre-flight weather briefing.

17:30:50 UTC

KMER TAF
Castle Airport
Atwater, California, USA
KMER 241120Z 2412/2512 36003KT P6SM SCT250

Mar-24@
12:00 UTC

Mar-24 @ 12:00 UTC

Mar-25@
12:00 UTC

Mar-25 @ 12:00 UTC

KMER 241120Z 2412/2512 36003KT P6SM SCT250
Wind
  • 360° at 3 KTS
Cloud Levels
  • Scattered at 25,000' AGL